themls.com alexa rank chart, themls.com alexa rank daily changes

themls.com alexa rank chart, themls.com alexa rank daily changes

themls.com
Actual rank:
40 646

RANK HISTORY

Date Rank Diff
2018/04/22 40 646 +4 978
2018/04/21 35 668 -8 350
2018/04/20 44 018 +12 021
2018/04/19 31 997 -19 800
2018/04/18 51 797 +18 321
2018/04/17 33 476 -16 148
2018/04/16 49 624 +8 521
2018/04/15 41 103 +4 800
2018/04/14 36 303 -5 938
2018/04/13 42 241 +6 757
2018/04/12 35 484 -10 405
2018/04/11 45 889 -9 862
2018/04/10 55 751 +15 399
2018/04/09 40 352 +3 562
2018/04/08 36 790 +3 681
2018/04/07 33 109 -7 665
2018/04/06 40 774 +5 303
2018/04/05 35 471 -14 667
2018/04/04 50 138 +1 817
2018/04/03 48 321 +9 349
2018/04/02 38 972 +3 494
2018/04/01 35 478 +3 918
2018/03/31 31 560 -3 269
2018/03/30 34 829 +2 664
2018/03/29 32 165 -4 875
2018/03/28 37 040 -13 664
2018/03/27 50 704 +2 521
2018/03/26 48 183 +10 504
2018/03/25 37 679 -876
2018/03/24 38 555 -209
2018/03/23 38 764 -3 046
2018/03/22 41 810 +8 682
2018/03/21 33 128 -9 603
2018/03/20 42 731 +9 504
2018/03/19 33 227 -3 427
2018/03/18 36 654 -7 172
2018/03/17 43 826 -1 135
2018/03/16 44 961 +14 458
2018/03/15 30 503 -11 638
2018/03/14 42 141 -7 801
2018/03/13 49 942 +16 292
2018/03/12 33 650 -1 957
2018/03/11 35 607 -4 136
2018/03/10 39 743 +766
2018/03/09 38 977 +7 670
2018/03/08 31 307 -9 991
2018/03/07 41 298 -19 170
2018/03/06 60 468 +22 017
2018/03/05 38 451 +5 047
2018/03/04 33 404 -4 726
2018/03/03 38 130 -2 287
2018/03/02 40 417 +5 437
2018/03/01 34 980 -12 818
2018/02/28 47 798 -4 234
2018/02/27 52 032 +4 816
2018/02/26 47 216 +6 714
2018/02/25 40 502 -805
2018/02/24 41 307 +3 890
2018/02/23 37 417 -4 726
2018/02/22 42 143 +3 845
2018/02/21 38 298

WIDGET FOR YOUR SITE

DOMAINS WITH THE NEAREST RANK

Domain Rank
aiqufuli.net 40 641
elevenwarriors.com 40 642
rockbottomgolf.com 40 643
nocibe.fr 40 644
finna.fi 40 645
themls.com 40 646
zaakpay.com 40 647
buckaroo.nl 40 648
bourdela.com 40 649
4ege.ru 40 650
ebay.co.jp 40 651

DOMAINS WITH THE NEAREST RANK BY TLD .com

Domain Rank
mspoweruser.com 40 634
mzcpunjab.com 40 635
humankinetics.com 40 636
elevenwarriors.com 40 642
rockbottomgolf.com 40 643
themls.com 40 646
zaakpay.com 40 647
bourdela.com 40 649
png2pdf.com 40 653
marinabaysands.com 40 656
ultrapeliculashd.com 40 659